Time;durP1;ratioP1;P1;durP2;ratioP2;P2;SDS_P1;SDS_P2;PMS_P1;PMS_P2;Temp;Humidity;BMP_temperature;BMP_pressure;BME280_temperature;BME280_humidity;BME280_pressure;Samples;Min_cycle;Max_cycle;Signal;HPM_P1;HPM_P2
2021/12/21 00:00:12;;;;;;;4.57;2.50;;;-0.80;99.90;;;;;;8307260;28;20232;-81
2021/12/21 00:04:12;;;;;;;8.20;3.13;;;-0.80;99.90;;;;;;8317514;28;20215;-84
2021/12/21 00:08:16;;;;;;;6.17;2.60;;;-0.80;99.90;;;;;;8308286;28;20205;-84
2021/12/21 00:12:19;;;;;;;5.83;2.53;;;-0.80;99.90;;;;;;8307167;28;20222;-82
2021/12/21 00:20:45;;;;;;;3.57;2.70;;;-0.80;99.90;;;;;;8328825;28;20195;-83
2021/12/21 00:24:48;;;;;;;6.27;2.73;;;-0.80;99.90;;;;;;8316882;28;20239;-83
2021/12/21 00:28:59;;;;;;;7.03;3.20;;;-0.70;99.90;;;;;;8312221;28;20255;-83
2021/12/21 00:32:59;;;;;;;10.93;4.33;;;-0.70;99.90;;;;;;8319506;28;20207;-84
2021/12/21 00:37:00;;;;;;;5.73;2.50;;;-0.70;99.90;;;;;;8307078;28;20212;-84
2021/12/21 00:41:02;;;;;;;7.20;2.90;;;-0.70;99.90;;;;;;8311457;28;20191;-83
2021/12/21 00:45:04;;;;;;;5.20;2.90;;;-0.70;99.90;;;;;;8343575;28;20207;-81
2021/12/21 00:49:16;;;;;;;5.87;2.17;;;-0.70;99.90;;;;;;8309382;28;20194;-83
2021/12/21 00:53:17;;;;;;;4.97;2.50;;;-0.70;99.90;;;;;;8314907;28;20326;-84
2021/12/21 00:57:18;;;;;;;5.23;2.60;;;-0.70;99.90;;;;;;8316674;28;20227;-84
2021/12/21 01:01:19;;;;;;;5.23;2.00;;;-0.70;99.90;;;;;;8318009;28;20227;-84
2021/12/21 01:05:31;;;;;;;3.53;2.27;;;-0.70;99.90;;;;;;8310270;28;20200;-84
2021/12/21 01:10:01;;;;;;;4.47;2.30;;;-0.70;99.90;;;;;;8308312;28;20216;-84
2021/12/21 01:14:08;;;;;;;2.40;1.67;;;-0.70;99.90;;;;;;8324399;28;20216;-84
2021/12/21 01:18:17;;;;;;;3.50;1.70;;;-0.70;99.90;;;;;;8309569;28;20218;-84
2021/12/21 01:22:29;;;;;;;3.43;1.83;;;-0.70;99.90;;;;;;8311489;28;20239;-81
2021/12/21 01:51:36;;;;;;;2.80;1.70;;;-0.60;99.90;;;;;;8327126;28;20198;-84
2021/12/21 01:55:37;;;;;;;5.73;2.97;;;-0.60;99.90;;;;;;8310807;28;20214;-83
2021/12/21 01:59:40;;;;;;;3.27;1.80;;;-0.60;99.90;;;;;;8317292;28;20269;-84
2021/12/21 02:03:50;;;;;;;3.50;1.87;;;-0.60;99.90;;;;;;8314208;28;20191;-83
2021/12/21 02:07:51;;;;;;;4.93;1.90;;;-0.60;99.90;;;;;;8328462;28;20258;-84
2021/12/21 02:11:52;;;;;;;4.00;1.97;;;-0.60;99.90;;;;;;8331007;28;20187;-82
2021/12/21 02:15:52;;;;;;;4.83;2.27;;;-0.60;99.90;;;;;;8311622;28;20274;-84
2021/12/21 02:20:11;;;;;;;3.90;2.03;;;-0.60;99.90;;;;;;8311646;28;20187;-81
2021/12/21 02:24:16;;;;;;;3.73;1.53;;;-0.60;99.90;;;;;;8315623;28;20197;-84
2021/12/21 02:32:19;;;;;;;2.87;1.40;;;-0.60;99.90;;;;;;8324943;28;20510;-81
2021/12/21 02:36:20;;;;;;;2.33;1.60;;;-0.60;99.90;;;;;;8306706;28;20221;-85
2021/12/21 02:40:21;;;;;;;2.73;1.40;;;-0.60;99.90;;;;;;8313126;28;20190;-85
2021/12/21 02:44:22;;;;;;;3.23;1.43;;;-0.60;99.90;;;;;;8305693;28;20193;-84
2021/12/21 02:48:23;;;;;;;3.77;1.30;;;-0.60;99.90;;;;;;8316264;28;20294;-84
2021/12/21 02:52:24;;;;;;;3.73;1.53;;;-0.60;99.90;;;;;;8311562;28;20193;-82
2021/12/21 02:56:25;;;;;;;3.23;1.70;;;-0.50;99.90;;;;;;8330724;28;20225;-81
2021/12/21 03:00:27;;;;;;;3.23;1.83;;;-0.50;99.90;;;;;;8309341;28;20187;-84
2021/12/21 03:04:28;;;;;;;4.10;2.37;;;-0.50;99.90;;;;;;8318086;28;20200;-84
2021/12/21 03:08:42;;;;;;;5.37;2.40;;;-0.50;99.90;;;;;;8302798;28;20191;-81
2021/12/21 03:17:05;;;;;;;4.53;2.00;;;-0.50;99.90;;;;;;8328764;28;20284;-81
2021/12/21 03:21:06;;;;;;;5.07;2.53;;;-0.50;99.90;;;;;;8314228;28;20186;-84
2021/12/21 03:25:08;;;;;;;4.23;2.10;;;-0.50;99.90;;;;;;8307129;28;20279;-81
2021/12/21 03:29:09;;;;;;;3.10;2.20;;;-0.50;99.90;;;;;;8326391;28;20202;-82
2021/12/21 03:33:10;;;;;;;4.00;2.27;;;-0.50;99.90;;;;;;8312742;28;20187;-83
2021/12/21 03:37:14;;;;;;;4.23;2.17;;;-0.50;99.90;;;;;;8310601;28;20316;-84
2021/12/21 03:41:16;;;;;;;5.63;2.83;;;-0.60;99.90;;;;;;8328454;28;20183;-84
2021/12/21 03:45:18;;;;;;;5.80;2.97;;;-0.60;99.90;;;;;;8313046;28;20205;-83
2021/12/21 03:53:36;;;;;;;6.30;2.60;;;-0.60;99.90;;;;;;8328728;28;20248;-81
2021/12/21 03:57:37;;;;;;;7.50;2.70;;;-0.60;99.90;;;;;;8307765;28;20217;-83
2021/12/21 04:01:38;;;;;;;5.40;3.00;;;-0.60;99.90;;;;;;8313284;28;20178;-82
2021/12/21 04:05:39;;;;;;;4.30;2.97;;;-0.60;99.90;;;;;;8311400;28;20182;-84
2021/12/21 04:09:40;;;;;;;4.80;2.53;;;-0.60;99.90;;;;;;8314034;28;20313;-85
2021/12/21 04:13:41;;;;;;;8.30;3.53;;;-0.70;99.90;;;;;;8303064;28;20252;-81
2021/12/21 04:17:42;;;;;;;9.90;7.07;;;-0.70;99.90;;;;;;8302043;28;20245;-82
2021/12/21 04:21:43;;;;;;;7.07;4.63;;;-0.70;99.90;;;;;;8309576;28;20182;-82
2021/12/21 04:25:44;;;;;;;7.50;4.43;;;-0.70;99.90;;;;;;8315414;28;20217;-84
2021/12/21 04:29:45;;;;;;;9.37;4.30;;;-0.70;99.90;;;;;;8317701;28;20218;-84
2021/12/21 04:33:47;;;;;;;6.43;3.30;;;-0.70;99.90;;;;;;8307243;28;20190;-85
2021/12/21 04:38:01;;;;;;;6.43;3.30;;;-0.70;99.90;;;;;;8324341;28;20214;-84
2021/12/21 04:42:03;;;;;;;6.33;3.30;;;-0.70;99.90;;;;;;8310664;28;20193;-84
2021/12/21 04:46:04;;;;;;;8.07;6.00;;;-0.70;99.90;;;;;;8300080;28;20193;-81
2021/12/21 04:50:06;;;;;;;14.97;9.27;;;-0.70;99.90;;;;;;8333705;28;20225;-84
2021/12/21 04:54:07;;;;;;;23.17;15.83;;;-0.70;99.90;;;;;;8305699;28;20214;-84
2021/12/21 04:58:08;;;;;;;6.83;4.90;;;-0.70;99.90;;;;;;8309114;28;20214;-83
2021/12/21 05:02:09;;;;;;;9.17;5.00;;;-0.70;99.90;;;;;;8326666;28;20183;-84
2021/12/21 05:06:10;;;;;;;7.03;4.03;;;-0.70;99.90;;;;;;8306353;28;20198;-83
2021/12/21 05:10:12;;;;;;;4.47;3.53;;;-0.60;99.90;;;;;;8307570;28;20209;-83
2021/12/21 05:14:13;;;;;;;8.53;3.60;;;-0.60;99.90;;;;;;8306255;28;20210;-84
2021/12/21 05:18:15;;;;;;;5.83;3.83;;;-0.60;99.90;;;;;;8306539;28;20214;-82
2021/12/21 05:22:16;;;;;;;5.77;4.43;;;-0.50;99.90;;;;;;8306660;28;20257;-81
2021/12/21 05:26:17;;;;;;;7.80;5.60;;;-0.60;99.90;;;;;;8310206;28;20198;-83
2021/12/21 05:30:18;;;;;;;7.87;3.97;;;-0.60;99.90;;;;;;8311169;28;20253;-84
2021/12/21 05:34:19;;;;;;;7.57;4.10;;;-0.60;99.90;;;;;;8305399;28;20202;-84
2021/12/21 05:38:29;;;;;;;7.20;3.83;;;-0.60;99.90;;;;;;8310446;28;20284;-81
2021/12/21 05:42:30;;;;;;;6.10;4.40;;;-0.60;99.90;;;;;;8309274;28;20183;-84
2021/12/21 05:46:30;;;;;;;7.23;4.00;;;-0.50;99.90;;;;;;8328946;28;20277;-84
2021/12/21 05:50:32;;;;;;;6.60;3.93;;;-0.60;99.90;;;;;;8330820;28;20190;-85
2021/12/21 05:54:32;;;;;;;8.03;5.37;;;-0.60;99.90;;;;;;8304546;28;20242;-83
2021/12/21 05:58:33;;;;;;;6.80;4.63;;;-0.60;99.90;;;;;;8317395;28;20208;-83
2021/12/21 06:02:34;;;;;;;7.27;5.10;;;-0.60;99.90;;;;;;8309622;28;20190;-83
2021/12/21 06:06:35;;;;;;;11.87;5.33;;;-0.60;99.90;;;;;;8303522;28;20191;-82
2021/12/21 06:10:40;;;;;;;7.50;4.37;;;-0.60;99.90;;;;;;8311035;28;20198;-83
2021/12/21 06:15:10;;;;;;;7.13;4.80;;;-0.50;99.90;;;;;;8313909;28;20194;-82
2021/12/21 06:27:39;;;;;;;8.30;4.77;;;-0.60;99.90;;;;;;8331143;28;20220;-84
2021/12/21 06:31:41;;;;;;;8.27;4.57;;;-0.70;99.90;;;;;;8313200;28;20198;-85
2021/12/21 06:35:42;;;;;;;8.60;5.07;;;-0.70;99.90;;;;;;8314280;28;20194;-80
2021/12/21 06:39:43;;;;;;;10.47;4.77;;;-0.70;99.90;;;;;;8317629;28;20186;-80
2021/12/21 06:43:44;;;;;;;10.87;5.77;;;-0.60;99.90;;;;;;8314347;28;20189;-83
2021/12/21 06:52:05;;;;;;;5.67;3.83;;;-0.60;99.90;;;;;;8329485;28;20253;-83
2021/12/21 06:56:08;;;;;;;6.20;3.83;;;-0.60;99.90;;;;;;8314763;28;20243;-80
2021/12/21 07:00:14;;;;;;;5.87;3.37;;;-0.50;99.90;;;;;;8314329;28;20300;-81
2021/12/21 07:04:17;;;;;;;6.60;4.17;;;-0.50;99.90;;;;;;8319068;28;20209;-84
2021/12/21 07:08:24;;;;;;;4.63;3.57;;;-0.40;99.90;;;;;;8314171;28;20200;-85
2021/12/21 07:20:50;;;;;;;3.97;2.77;;;-0.30;99.90;;;;;;8317578;28;20268;-85
2021/12/21 07:24:51;;;;;;;4.00;3.07;;;-0.30;99.90;;;;;;8301794;28;20196;-83
2021/12/21 07:28:53;;;;;;;5.53;2.97;;;-0.20;99.90;;;;;;8305663;28;20195;-86
2021/12/21 07:32:54;;;;;;;4.37;3.33;;;-0.20;99.90;;;;;;8305513;28;20248;-85
2021/12/21 07:36:55;;;;;;;6.23;3.43;;;-0.10;99.90;;;;;;8309973;28;20209;-83
2021/12/21 07:40:57;;;;;;;4.80;3.43;;;0.00;99.90;;;;;;8308740;28;20245;-85
2021/12/21 07:44:58;;;;;;;6.10;4.27;;;0.00;99.90;;;;;;8304347;28;21713;-88
2021/12/21 07:49:00;;;;;;;11.03;5.03;;;0.00;99.90;;;;;;8313049;28;20258;-86
2021/12/21 07:53:01;;;;;;;5.87;4.27;;;-0.10;99.90;;;;;;8312468;28;20213;-86
2021/12/21 07:57:03;;;;;;;6.90;3.87;;;-0.10;99.90;;;;;;8306536;28;20264;-84
2021/12/21 08:01:05;;;;;;;6.70;4.57;;;0.00;99.90;;;;;;8312261;28;20225;-79
2021/12/21 08:05:08;;;;;;;9.10;5.27;;;0.00;99.90;;;;;;8322564;28;20175;-84
2021/12/21 08:09:09;;;;;;;6.33;4.50;;;0.20;99.90;;;;;;8316291;28;20211;-89
2021/12/21 08:13:11;;;;;;;6.53;4.37;;;0.20;99.90;;;;;;8305327;28;20190;-87
2021/12/21 08:17:12;;;;;;;7.93;4.53;;;0.30;99.90;;;;;;8312326;28;20206;-84
2021/12/21 08:21:16;;;;;;;5.97;4.30;;;0.30;99.90;;;;;;8306529;28;20198;-80
2021/12/21 08:25:17;;;;;;;6.40;3.97;;;0.40;99.90;;;;;;8307837;28;20183;-89
2021/12/21 08:29:18;;;;;;;6.10;3.80;;;0.40;99.90;;;;;;8310070;28;20270;-82
2021/12/21 08:33:19;;;;;;;5.43;3.67;;;0.50;99.90;;;;;;8307604;28;20191;-88
2021/12/21 08:37:20;;;;;;;7.17;3.87;;;0.60;99.90;;;;;;8301745;28;20227;-82
2021/12/21 08:41:22;;;;;;;6.40;4.20;;;0.70;99.90;;;;;;8306195;28;20174;-85
2021/12/21 08:45:23;;;;;;;5.80;4.07;;;0.80;99.90;;;;;;8304309;28;20189;-80
2021/12/21 08:49:27;;;;;;;7.43;4.67;;;1.00;99.90;;;;;;8294378;28;20225;-82
2021/12/21 08:53:28;;;;;;;4.53;4.10;;;1.20;99.90;;;;;;8307748;28;20308;-87
2021/12/21 08:57:29;;;;;;;5.47;4.07;;;1.20;99.90;;;;;;8312483;28;20325;-84
2021/12/21 09:01:30;;;;;;;4.30;3.00;;;1.30;99.90;;;;;;8323673;28;20281;-87
2021/12/21 09:05:31;;;;;;;3.10;2.70;;;1.40;99.90;;;;;;8323181;28;20183;-86
2021/12/21 09:09:32;;;;;;;3.80;2.40;;;1.50;99.90;;;;;;8307706;28;20195;-84
2021/12/21 09:13:33;;;;;;;3.90;2.30;;;1.50;99.90;;;;;;8303823;28;20197;-87
2021/12/21 09:17:35;;;;;;;4.40;3.33;;;1.60;99.90;;;;;;8307459;28;20221;-81
2021/12/21 09:21:37;;;;;;;3.27;2.47;;;1.80;99.90;;;;;;8306609;28;20197;-87
2021/12/21 09:25:38;;;;;;;4.10;2.90;;;1.90;99.90;;;;;;8312761;28;20182;-88
2021/12/21 09:29:39;;;;;;;5.53;4.67;;;2.10;99.90;;;;;;8309143;28;20285;-81
2021/12/21 09:33:40;;;;;;;7.17;3.93;;;2.20;99.90;;;;;;8318806;28;20196;-87
2021/12/21 09:37:41;;;;;;;5.87;3.53;;;2.30;99.90;;;;;;8300243;28;20194;-85
2021/12/21 09:41:42;;;;;;;21.10;10.13;;;2.40;99.90;;;;;;8300445;28;20186;-84
2021/12/21 09:45:43;;;;;;;13.27;5.97;;;2.50;99.90;;;;;;8310468;28;20205;-87
2021/12/21 09:49:45;;;;;;;9.10;4.77;;;2.70;99.90;;;;;;8307531;28;20194;-87
2021/12/21 09:53:48;;;;;;;8.73;5.40;;;2.80;99.90;;;;;;8309964;28;20269;-87
2021/12/21 09:57:51;;;;;;;9.27;6.13;;;3.00;99.90;;;;;;8316555;28;20209;-85
2021/12/21 10:01:52;;;;;;;13.77;8.50;;;3.30;99.90;;;;;;8313793;28;20198;-82
2021/12/21 10:06:03;;;;;;;14.03;8.43;;;3.30;99.90;;;;;;8307899;28;20226;-83
2021/12/21 10:10:16;;;;;;;14.63;9.00;;;3.20;99.90;;;;;;8305820;28;20213;-81
2021/12/21 10:14:18;;;;;;;12.53;7.57;;;2.90;99.90;;;;;;8312123;28;20204;-86
2021/12/21 10:18:25;;;;;;;15.63;10.47;;;2.80;99.90;;;;;;8299914;28;20224;-87
2021/12/21 10:22:26;;;;;;;18.67;10.17;;;2.60;99.90;;;;;;8307473;28;20426;-83
2021/12/21 10:26:32;;;;;;;17.20;10.53;;;2.50;99.90;;;;;;8306734;28;20191;-81
2021/12/21 10:30:34;;;;;;;15.43;9.17;;;2.50;99.90;;;;;;8310411;28;20178;-86
2021/12/21 10:34:35;;;;;;;25.97;13.77;;;2.20;99.90;;;;;;8310343;28;20254;-86
2021/12/21 10:38:55;;;;;;;27.37;14.20;;;2.00;99.90;;;;;;8306369;28;20218;-79
2021/12/21 10:43:03;;;;;;;22.13;12.20;;;1.90;99.90;;;;;;8319378;28;20218;-83
2021/12/21 10:47:04;;;;;;;19.37;11.23;;;1.80;99.90;;;;;;8310332;28;20191;-80
2021/12/21 10:51:12;;;;;;;29.43;15.40;;;1.80;99.90;;;;;;8309408;28;20261;-85
2021/12/21 10:55:13;;;;;;;21.73;13.30;;;1.90;99.90;;;;;;8311276;28;20308;-80
2021/12/21 10:59:14;;;;;;;29.57;16.13;;;2.10;99.90;;;;;;8312152;28;20207;-86
2021/12/21 11:03:17;;;;;;;21.43;11.67;;;2.40;99.90;;;;;;8310277;28;20182;-86
2021/12/21 11:07:34;;;;;;;19.37;11.50;;;2.60;99.90;;;;;;8326556;28;20248;-85
2021/12/21 11:11:43;;;;;;;14.83;8.80;;;2.90;99.90;;;;;;8315834;28;20198;-83
2021/12/21 11:15:53;;;;;;;11.63;8.37;;;3.10;99.90;;;;;;8311851;28;20194;-82
2021/12/21 11:19:54;;;;;;;11.30;7.77;;;3.20;99.90;;;;;;8308250;28;20286;-81
2021/12/21 11:23:55;;;;;;;11.80;7.37;;;3.20;99.90;;;;;;8315498;28;20190;-84
2021/12/21 11:27:56;;;;;;;10.07;6.53;;;3.10;99.90;;;;;;8316102;28;20182;-87
2021/12/21 11:32:01;;;;;;;9.27;5.70;;;3.00;99.90;;;;;;8306416;28;20305;-81
2021/12/21 11:40:32;;;;;;;8.80;5.60;;;2.50;99.90;;;;;;8334632;28;20213;-85
2021/12/21 11:45:03;;;;;;;7.83;4.80;;;2.50;99.90;;;;;;8307246;28;20221;-87
2021/12/21 11:49:15;;;;;;;7.80;5.23;;;2.50;99.90;;;;;;8336198;28;20201;-83
2021/12/21 11:53:18;;;;;;;8.43;5.57;;;2.40;99.90;;;;;;8306758;28;20272;-83
2021/12/21 11:57:34;;;;;;;10.20;5.90;;;2.20;99.90;;;;;;8314182;28;20252;-81
2021/12/21 12:01:35;;;;;;;8.50;6.13;;;2.00;99.90;;;;;;8307356;28;20197;-83
2021/12/21 12:05:38;;;;;;;17.60;10.97;;;2.20;99.90;;;;;;8301048;28;20182;-85
2021/12/21 12:09:39;;;;;;;40.33;20.57;;;2.40;99.90;;;;;;8316057;28;20268;-83
2021/12/21 12:13:43;;;;;;;24.80;12.57;;;2.50;99.90;;;;;;8307600;28;20190;-83
2021/12/21 12:17:46;;;;;;;24.17;13.23;;;2.50;99.90;;;;;;8304403;28;20210;-87
2021/12/21 12:21:55;;;;;;;19.90;11.50;;;2.50;99.90;;;;;;8308355;28;20185;-80
2021/12/21 12:25:57;;;;;;;17.93;12.63;;;2.50;99.90;;;;;;8308401;28;20290;-85
2021/12/21 12:29:58;;;;;;;12.63;7.57;;;2.20;99.90;;;;;;8318351;28;20546;-81
2021/12/21 12:34:00;;;;;;;4.63;3.73;;;1.80;99.90;;;;;;8306855;28;20179;-86
2021/12/21 12:38:04;;;;;;;3.70;2.97;;;1.70;99.90;;;;;;8307925;28;20218;-87
2021/12/21 12:42:09;;;;;;;10.03;6.40;;;1.40;99.90;;;;;;8310170;28;20187;-86
2021/12/21 12:46:10;;;;;;;11.73;6.87;;;0.80;99.90;;;;;;8304278;28;20187;-83
2021/12/21 12:50:23;;;;;;;42.53;25.03;;;0.60;99.90;;;;;;8310641;28;20191;-85
2021/12/21 12:54:25;;;;;;;15.30;9.63;;;0.50;99.90;;;;;;8310553;28;20488;-80
2021/12/21 12:58:28;;;;;;;12.37;7.93;;;0.70;99.90;;;;;;8309714;28;20215;-79
2021/12/21 13:02:30;;;;;;;15.93;9.77;;;0.70;99.90;;;;;;8312731;28;20198;-82
2021/12/21 13:06:33;;;;;;;16.30;9.23;;;0.70;99.90;;;;;;8328827;28;20190;-79
2021/12/21 13:10:41;;;;;;;32.80;17.30;;;0.70;99.90;;;;;;8309723;28;20232;-85
2021/12/21 13:14:53;;;;;;;18.27;11.27;;;0.90;99.90;;;;;;8303389;28;20236;-79
2021/12/21 13:18:56;;;;;;;13.60;9.80;;;0.90;99.90;;;;;;8316834;28;20368;-83
2021/12/21 13:23:15;;;;;;;15.47;9.77;;;0.90;99.90;;;;;;8322497;28;20266;-87
2021/12/21 13:27:16;;;;;;;15.60;8.83;;;0.90;99.90;;;;;;8310708;28;20202;-82
2021/12/21 13:31:20;;;;;;;21.17;13.37;;;1.00;99.90;;;;;;8311118;28;20260;-87
2021/12/21 13:35:21;;;;;;;20.53;12.30;;;1.00;99.90;;;;;;8325959;28;20189;-88
2021/12/21 13:39:23;;;;;;;13.47;9.57;;;0.80;99.90;;;;;;8308160;28;20203;-84
2021/12/21 13:43:24;;;;;;;14.13;8.50;;;0.80;99.90;;;;;;8305565;28;20226;-85
2021/12/21 13:47:32;;;;;;;13.47;7.47;;;0.60;99.90;;;;;;8126610;28;20199;-82
2021/12/21 13:51:33;;;;;;;10.43;6.97;;;0.50;99.90;;;;;;8136575;28;20197;-82
2021/12/21 13:55:40;;;;;;;11.97;7.40;;;0.30;99.90;;;;;;8059035;28;20210;-84
2021/12/21 13:59:41;;;;;;;11.90;7.37;;;0.20;99.90;;;;;;8091116;28;20211;-83
2021/12/21 14:03:50;;;;;;;16.77;9.27;;;0.20;99.90;;;;;;8061003;28;20190;-81
2021/12/21 14:07:51;;;;;;;10.97;6.77;;;0.10;99.90;;;;;;8054517;28;20216;-85
2021/12/21 14:11:55;;;;;;;13.90;8.40;;;0.10;99.90;;;;;;8076954;28;20194;-85
2021/12/21 14:15:56;;;;;;;19.77;10.10;;;0.10;99.90;;;;;;8126128;28;20199;-85
2021/12/21 14:19:59;;;;;;;15.20;7.67;;;0.10;99.90;;;;;;8158840;28;20259;-82
2021/12/21 14:24:02;;;;;;;15.33;9.23;;;0.20;99.90;;;;;;8159946;28;20193;-81
2021/12/21 14:28:11;;;;;;;16.27;9.03;;;0.20;99.90;;;;;;8169258;28;20205;-85
2021/12/21 14:32:24;;;;;;;17.67;9.93;;;0.20;99.90;;;;;;8198000;28;20198;-85
2021/12/21 14:36:26;;;;;;;15.13;8.53;;;0.20;99.90;;;;;;8210664;28;20218;-83
2021/12/21 14:40:27;;;;;;;17.13;9.10;;;0.10;99.90;;;;;;8226291;28;20222;-84
2021/12/21 14:44:30;;;;;;;12.90;7.83;;;0.10;99.90;;;;;;8194671;28;20194;-86
2021/12/21 14:48:31;;;;;;;16.37;8.57;;;0.00;99.90;;;;;;8212255;28;20194;-84
2021/12/21 14:52:55;;;;;;;13.23;8.60;;;-0.10;99.90;;;;;;8237368;28;20220;-87
2021/12/21 14:57:07;;;;;;;15.73;9.17;;;-0.10;99.90;;;;;;8217430;28;20280;-87
2021/12/21 15:01:08;;;;;;;14.33;8.80;;;-0.20;99.90;;;;;;8221649;28;20194;-81
2021/12/21 15:05:11;;;;;;;19.43;12.93;;;-0.20;99.90;;;;;;8225306;28;20193;-84
2021/12/21 15:09:12;;;;;;;66.07;29.87;;;-0.20;99.90;;;;;;8258103;28;20206;-84
2021/12/21 15:13:15;;;;;;;54.00;24.67;;;-0.10;99.90;;;;;;8259578;28;20236;-85
2021/12/21 15:17:16;;;;;;;39.73;20.17;;;-0.10;99.90;;;;;;8260743;28;20226;-81
2021/12/21 15:21:17;;;;;;;41.40;20.20;;;-0.10;99.90;;;;;;8261652;28;20300;-83
2021/12/21 15:25:19;;;;;;;30.77;16.30;;;-0.20;99.90;;;;;;8253240;28;20265;-83
2021/12/21 15:29:20;;;;;;;27.33;14.97;;;-0.20;99.90;;;;;;8247688;28;20201;-83
2021/12/21 15:33:21;;;;;;;26.17;15.53;;;-0.30;99.90;;;;;;8238268;28;20221;-84
2021/12/21 15:37:22;;;;;;;26.67;16.30;;;-0.40;99.90;;;;;;8238549;28;20206;-85
2021/12/21 15:41:23;;;;;;;76.83;38.27;;;-0.60;99.90;;;;;;8258659;28;20183;-82
2021/12/21 15:45:25;;;;;;;63.83;32.43;;;-0.90;99.90;;;;;;8230066;28;20248;-81
2021/12/21 15:49:26;;;;;;;62.07;30.60;;;-1.10;99.90;;;;;;8223943;28;20205;-83
2021/12/21 15:53:27;;;;;;;64.97;33.80;;;-1.20;99.90;;;;;;8207894;28;20285;-83
2021/12/21 15:57:28;;;;;;;79.23;43.60;;;-1.40;99.90;;;;;;8227143;28;20249;-84
2021/12/21 16:01:29;;;;;;;63.80;37.33;;;-1.60;99.90;;;;;;8222424;28;20190;-85
2021/12/21 16:05:30;;;;;;;60.07;31.33;;;-1.70;99.90;;;;;;8221262;28;20186;-84
2021/12/21 16:09:31;;;;;;;37.67;19.87;;;-1.80;99.90;;;;;;8217255;28;20748;-82
2021/12/21 16:13:32;;;;;;;23.90;13.80;;;-1.90;99.90;;;;;;8226337;28;20190;-83
2021/12/21 16:17:34;;;;;;;21.13;11.63;;;-1.90;99.90;;;;;;8229240;28;20219;-80
2021/12/21 16:21:35;;;;;;;18.67;10.47;;;-2.00;99.90;;;;;;8249015;28;20212;-83
2021/12/21 16:25:36;;;;;;;23.43;15.43;;;-2.00;99.90;;;;;;8291608;28;20273;-82
2021/12/21 16:29:37;;;;;;;29.70;18.77;;;-1.90;99.90;;;;;;8276344;28;20228;-81
2021/12/21 16:33:38;;;;;;;17.57;11.40;;;-1.80;99.90;;;;;;8272993;28;20250;-79
2021/12/21 16:37:39;;;;;;;22.73;14.40;;;-1.70;99.90;;;;;;8279113;28;20213;-83
2021/12/21 16:41:43;;;;;;;23.93;13.23;;;-1.60;99.90;;;;;;8280293;28;20225;-82
2021/12/21 16:45:45;;;;;;;42.40;20.53;;;-1.50;99.90;;;;;;8282919;28;20217;-82
2021/12/21 16:49:46;;;;;;;22.77;12.47;;;-1.30;99.90;;;;;;8280146;28;20280;-81
2021/12/21 16:53:48;;;;;;;25.10;13.60;;;-1.20;99.90;;;;;;8275379;28;20572;-82
2021/12/21 16:57:50;;;;;;;15.80;9.70;;;-1.10;99.90;;;;;;8298743;28;20221;-84
2021/12/21 17:01:51;;;;;;;15.13;10.37;;;-1.00;99.90;;;;;;8277572;28;20202;-85
2021/12/21 17:05:52;;;;;;;18.90;11.30;;;-1.00;99.90;;;;;;8283411;28;20190;-85
2021/12/21 17:10:01;;;;;;;17.20;9.90;;;-1.00;99.90;;;;;;8290058;28;20399;-84
2021/12/21 17:14:04;;;;;;;17.47;10.43;;;-1.00;99.90;;;;;;8314476;28;20180;-83
2021/12/21 17:18:05;;;;;;;18.47;9.20;;;-1.10;99.90;;;;;;8297888;28;20281;-82
2021/12/21 17:22:06;;;;;;;14.33;8.57;;;-1.20;99.90;;;;;;8315272;28;20191;-84
2021/12/21 17:26:07;;;;;;;15.53;9.47;;;-1.20;99.90;;;;;;8297880;28;20191;-85
2021/12/21 17:30:08;;;;;;;11.50;6.77;;;-1.20;99.90;;;;;;8300241;28;20188;-82
2021/12/21 17:34:09;;;;;;;18.47;7.63;;;-1.10;99.90;;;;;;8301274;28;20319;-82
2021/12/21 17:38:11;;;;;;;9.47;6.70;;;-1.20;99.90;;;;;;8296921;28;20213;-81
2021/12/21 17:42:12;;;;;;;13.43;7.87;;;-1.20;99.90;;;;;;8290227;28;20200;-84
2021/12/21 17:46:13;;;;;;;16.27;9.40;;;-1.20;99.90;;;;;;8283345;28;20184;-80
2021/12/21 17:50:14;;;;;;;10.50;6.47;;;-1.20;99.90;;;;;;8280059;28;20185;-83
2021/12/21 17:54:15;;;;;;;11.13;7.80;;;-1.20;99.90;;;;;;8238037;28;20232;-83
2021/12/21 17:58:16;;;;;;;14.43;6.23;;;-1.20;99.90;;;;;;8237831;28;20240;-82
2021/12/21 18:02:19;;;;;;;9.87;5.73;;;-1.20;99.90;;;;;;8232130;28;20270;-83
2021/12/21 18:06:22;;;;;;;9.97;5.50;;;-1.20;99.90;;;;;;8267840;28;20240;-84
2021/12/21 18:10:23;;;;;;;10.93;7.27;;;-1.20;99.90;;;;;;8261035;28;20212;-85
2021/12/21 18:14:27;;;;;;;10.80;6.57;;;-1.20;99.90;;;;;;8290064;28;20190;-82
2021/12/21 18:18:28;;;;;;;9.13;6.13;;;-1.20;99.90;;;;;;8277427;28;20224;-85
2021/12/21 18:22:29;;;;;;;14.93;6.37;;;-1.20;99.90;;;;;;8296895;28;20243;-84
2021/12/21 18:26:30;;;;;;;10.80;6.57;;;-1.30;99.90;;;;;;8307594;28;20198;-85
2021/12/21 18:30:31;;;;;;;10.20;6.43;;;-1.30;99.90;;;;;;8306441;28;20269;-84
2021/12/21 18:34:33;;;;;;;9.53;5.83;;;-1.30;99.90;;;;;;8302537;28;20196;-83
2021/12/21 18:38:39;;;;;;;15.50;8.20;;;-1.30;99.90;;;;;;8305414;28;20315;-84
2021/12/21 18:42:40;;;;;;;13.37;7.87;;;-1.30;99.90;;;;;;8302744;28;20225;-85
2021/12/21 18:46:43;;;;;;;13.07;8.50;;;-1.30;99.90;;;;;;8321457;28;20194;-84
2021/12/21 18:50:44;;;;;;;9.67;5.60;;;-1.20;99.90;;;;;;8320538;28;20224;-82
2021/12/21 18:54:45;;;;;;;14.93;8.10;;;-1.30;99.90;;;;;;8304966;28;20232;-82
2021/12/21 18:58:51;;;;;;;12.00;7.93;;;-1.20;99.90;;;;;;8250467;28;20225;-83
2021/12/21 19:03:04;;;;;;;12.73;7.33;;;-1.10;99.90;;;;;;8139115;28;20193;-84
2021/12/21 19:07:06;;;;;;;11.43;7.17;;;-1.10;99.90;;;;;;8057925;28;20192;-82
2021/12/21 19:11:08;;;;;;;12.07;8.30;;;-1.10;99.90;;;;;;8131864;28;20630;-87
2021/12/21 19:15:09;;;;;;;13.40;8.03;;;-1.10;99.90;;;;;;8115350;28;21135;-84
2021/12/21 19:19:10;;;;;;;15.13;9.20;;;-1.20;99.90;;;;;;7987752;28;20306;-86
2021/12/21 19:23:16;;;;;;;11.17;8.03;;;-1.20;99.90;;;;;;7925499;28;20926;-85
2021/12/21 19:27:18;;;;;;;15.30;8.20;;;-1.30;99.90;;;;;;7842121;28;20208;-85
2021/12/21 19:31:19;;;;;;;18.33;9.60;;;-1.20;99.90;;;;;;8009416;28;20951;-85
2021/12/21 19:35:21;;;;;;;20.33;10.73;;;-1.20;99.90;;;;;;8150813;28;20188;-85
2021/12/21 19:39:24;;;;;;;23.23;12.03;;;-1.30;99.90;;;;;;8163662;28;20229;-87
2021/12/21 19:43:26;;;;;;;16.97;9.60;;;-1.30;99.90;;;;;;8141817;28;20210;-86
2021/12/21 19:47:30;;;;;;;22.50;10.87;;;-1.40;99.90;;;;;;8180239;28;20203;-85
2021/12/21 19:51:31;;;;;;;14.40;9.17;;;-1.40;99.90;;;;;;8238941;28;20192;-86
2021/12/21 19:55:31;;;;;;;15.47;8.57;;;-1.50;99.90;;;;;;8284155;28;20586;-86
2021/12/21 19:59:33;;;;;;;19.20;10.63;;;-1.70;99.90;;;;;;8290913;28;20220;-86
2021/12/21 20:03:37;;;;;;;15.77;9.90;;;-1.70;99.90;;;;;;8298430;28;20199;-87
2021/12/21 20:07:38;;;;;;;16.23;9.67;;;-1.80;99.90;;;;;;8281266;28;20188;-83
2021/12/21 20:11:53;;;;;;;14.63;9.00;;;-1.80;99.90;;;;;;8282884;28;20314;-86
2021/12/21 20:15:53;;;;;;;13.50;8.63;;;-2.00;99.90;;;;;;8270448;28;20229;-83
2021/12/21 20:19:58;;;;;;;15.07;8.67;;;-2.10;99.90;;;;;;8288130;28;20226;-86
2021/12/21 20:23:59;;;;;;;19.00;9.20;;;-2.20;99.90;;;;;;8303523;28;20336;-83
2021/12/21 20:28:00;;;;;;;15.93;9.10;;;-2.20;99.90;;;;;;8317857;28;20236;-83
2021/12/21 20:32:03;;;;;;;15.70;8.63;;;-2.10;99.90;;;;;;8303309;28;20199;-84
2021/12/21 20:36:05;;;;;;;13.30;8.37;;;-2.10;99.90;;;;;;8314824;28;20269;-84
2021/12/21 20:40:09;;;;;;;16.40;9.70;;;-2.10;99.90;;;;;;8301722;28;20314;-85
2021/12/21 20:44:10;;;;;;;13.57;8.73;;;-2.10;99.90;;;;;;8221733;28;20195;-82
2021/12/21 20:48:15;;;;;;;18.00;9.93;;;-2.10;99.90;;;;;;8174706;28;20190;-86
2021/12/21 20:52:20;;;;;;;16.97;9.03;;;-2.10;99.90;;;;;;8043482;28;20337;-85
2021/12/21 20:56:21;;;;;;;15.23;9.07;;;-2.10;99.90;;;;;;8030127;28;20248;-82
2021/12/21 21:00:22;;;;;;;13.27;7.83;;;-2.10;99.90;;;;;;8030194;28;20187;-86
2021/12/21 21:04:32;;;;;;;19.30;10.07;;;-2.10;99.90;;;;;;8032896;28;20183;-83
2021/12/21 21:08:36;;;;;;;16.33;7.93;;;-2.10;99.90;;;;;;7962910;28;20203;-83
2021/12/21 21:12:40;;;;;;;14.53;8.63;;;-2.10;99.90;;;;;;7988208;28;20199;-86
2021/12/21 21:16:43;;;;;;;14.30;7.97;;;-2.20;99.90;;;;;;8055498;28;20278;-84
2021/12/21 21:20:45;;;;;;;12.57;7.53;;;-2.10;99.90;;;;;;8055852;28;20192;-87
2021/12/21 21:24:46;;;;;;;14.33;8.73;;;-2.10;99.90;;;;;;8134493;28;20214;-86
2021/12/21 21:28:47;;;;;;;13.20;8.03;;;-2.10;99.90;;;;;;8134652;28;20298;-86
2021/12/21 21:32:49;;;;;;;11.77;8.40;;;-2.10;99.90;;;;;;8125510;28;21008;-84
2021/12/21 21:36:50;;;;;;;14.20;7.93;;;-2.10;99.90;;;;;;8166039;28;20202;-87
2021/12/21 21:40:51;;;;;;;14.13;7.03;;;-2.10;99.90;;;;;;8232579;28;20190;-85
2021/12/21 21:44:52;;;;;;;17.20;9.23;;;-2.00;99.90;;;;;;8216942;28;20202;-84
2021/12/21 21:48:56;;;;;;;16.37;8.87;;;-2.00;99.90;;;;;;8286218;28;20278;-83
2021/12/21 21:57:17;;;;;;;11.47;6.90;;;-1.90;99.90;;;;;;8304996;28;20341;-84
2021/12/21 22:01:19;;;;;;;12.23;7.10;;;-2.00;99.90;;;;;;8305997;28;20198;-86
2021/12/21 22:05:20;;;;;;;18.83;8.47;;;-2.00;99.90;;;;;;8305484;28;20331;-84
2021/12/21 22:09:21;;;;;;;13.13;6.97;;;-2.00;99.90;;;;;;8318600;28;20211;-83